sensor_id;sensor_type;location;lat;lon;timestamp;temperature;humidity
40454;DHT22;26160;51.858;4.398;2024-01-07T00:01:18;2.90;99.90
40454;DHT22;26160;51.858;4.398;2024-01-07T00:03:44;2.90;99.90
40454;DHT22;26160;51.858;4.398;2024-01-07T00:06:23;2.90;99.90
40454;DHT22;26160;51.858;4.398;2024-01-07T00:08:49;2.90;99.90
40454;DHT22;26160;51.858;4.398;2024-01-07T00:11:16;2.90;99.90
40454;DHT22;26160;51.858;4.398;2024-01-07T00:13:46;2.90;99.90
40454;DHT22;26160;51.858;4.398;2024-01-07T00:16:13;2.90;99.90
40454;DHT22;26160;51.858;4.398;2024-01-07T00:18:39;2.90;99.90
40454;DHT22;26160;51.858;4.398;2024-01-07T00:21:08;2.90;99.90
40454;DHT22;26160;51.858;4.398;2024-01-07T00:23:53;3.00;99.90
40454;DHT22;26160;51.858;4.398;2024-01-07T00:26:29;2.90;99.90
40454;DHT22;26160;51.858;4.398;2024-01-07T00:28:58;2.90;99.90
40454;DHT22;26160;51.858;4.398;2024-01-07T00:31:44;2.90;99.90
40454;DHT22;26160;51.858;4.398;2024-01-07T00:34:18;2.90;99.90
40454;DHT22;26160;51.858;4.398;2024-01-07T00:36:53;2.90;99.90
40454;DHT22;26160;51.858;4.398;2024-01-07T00:39:24;2.90;99.90
40454;DHT22;26160;51.858;4.398;2024-01-07T00:42:01;2.90;99.90
40454;DHT22;26160;51.858;4.398;2024-01-07T00:44:27;2.90;99.90
40454;DHT22;26160;51.858;4.398;2024-01-07T00:46:54;2.90;99.90
40454;DHT22;26160;51.858;4.398;2024-01-07T00:49:20;2.90;99.90
40454;DHT22;26160;51.858;4.398;2024-01-07T00:51:47;2.90;99.90
40454;DHT22;26160;51.858;4.398;2024-01-07T00:57:14;2.80;99.90
40454;DHT22;26160;51.858;4.398;2024-01-07T00:59:46;3.00;99.90
40454;DHT22;26160;51.858;4.398;2024-01-07T01:02:16;2.90;99.90
40454;DHT22;26160;51.858;4.398;2024-01-07T01:04:50;2.90;99.90
40454;DHT22;26160;51.858;4.398;2024-01-07T01:10:28;2.90;99.90
40454;DHT22;26160;51.858;4.398;2024-01-07T01:13:14;2.90;99.90
40454;DHT22;26160;51.858;4.398;2024-01-07T01:15:48;2.90;99.90
40454;DHT22;26160;51.858;4.398;2024-01-07T01:18:16;2.80;99.90
40454;DHT22;26160;51.858;4.398;2024-01-07T01:20:50;2.70;99.90
40454;DHT22;26160;51.858;4.398;2024-01-07T01:23:25;2.80;99.90
40454;DHT22;26160;51.858;4.398;2024-01-07T01:25:52;2.70;99.90
40454;DHT22;26160;51.858;4.398;2024-01-07T01:28:19;2.70;99.90
40454;DHT22;26160;51.858;4.398;2024-01-07T01:31:04;2.70;99.90
40454;DHT22;26160;51.858;4.398;2024-01-07T01:33:45;2.80;99.90
40454;DHT22;26160;51.858;4.398;2024-01-07T01:36:27;2.70;99.90
40454;DHT22;26160;51.858;4.398;2024-01-07T01:38:56;2.70;99.90
40454;DHT22;26160;51.858;4.398;2024-01-07T01:41:35;2.70;99.90
40454;DHT22;26160;51.858;4.398;2024-01-07T01:44:04;2.70;99.90
40454;DHT22;26160;51.858;4.398;2024-01-07T01:46:54;2.70;99.90
40454;DHT22;26160;51.858;4.398;2024-01-07T01:49:21;2.70;99.90
40454;DHT22;26160;51.858;4.398;2024-01-07T01:51:50;2.70;99.90
40454;DHT22;26160;51.858;4.398;2024-01-07T01:54:19;2.70;99.90
40454;DHT22;26160;51.858;4.398;2024-01-07T01:56:46;2.70;99.90
40454;DHT22;26160;51.858;4.398;2024-01-07T01:59:14;2.70;99.90
40454;DHT22;26160;51.858;4.398;2024-01-07T02:04:16;2.80;99.90
40454;DHT22;26160;51.858;4.398;2024-01-07T02:06:45;2.80;99.90
40454;DHT22;26160;51.858;4.398;2024-01-07T02:09:11;2.80;99.90
40454;DHT22;26160;51.858;4.398;2024-01-07T02:11:37;2.80;99.90
40454;DHT22;26160;51.858;4.398;2024-01-07T02:14:03;2.80;99.90
40454;DHT22;26160;51.858;4.398;2024-01-07T02:16:30;2.70;99.90
40454;DHT22;26160;51.858;4.398;2024-01-07T02:18:56;2.70;99.90
40454;DHT22;26160;51.858;4.398;2024-01-07T02:21:22;2.60;99.90
40454;DHT22;26160;51.858;4.398;2024-01-07T02:23:48;2.60;99.90
40454;DHT22;26160;51.858;4.398;2024-01-07T02:26:14;2.60;99.90
40454;DHT22;26160;51.858;4.398;2024-01-07T02:28:41;2.60;99.90
40454;DHT22;26160;51.858;4.398;2024-01-07T02:31:07;2.60;99.90
40454;DHT22;26160;51.858;4.398;2024-01-07T02:33:34;2.60;99.90
40454;DHT22;26160;51.858;4.398;2024-01-07T02:36:00;2.60;99.90
40454;DHT22;26160;51.858;4.398;2024-01-07T02:38:26;2.60;99.90
40454;DHT22;26160;51.858;4.398;2024-01-07T02:40:52;2.60;99.90
40454;DHT22;26160;51.858;4.398;2024-01-07T02:43:18;2.60;99.90
40454;DHT22;26160;51.858;4.398;2024-01-07T02:45:44;2.60;99.90
40454;DHT22;26160;51.858;4.398;2024-01-07T02:48:10;2.50;99.90
40454;DHT22;26160;51.858;4.398;2024-01-07T02:50:36;2.60;99.90
40454;DHT22;26160;51.858;4.398;2024-01-07T02:53:03;2.60;99.90
40454;DHT22;26160;51.858;4.398;2024-01-07T02:55:29;2.60;99.90
40454;DHT22;26160;51.858;4.398;2024-01-07T02:57:55;2.60;99.90
40454;DHT22;26160;51.858;4.398;2024-01-07T03:00:21;2.50;99.90
40454;DHT22;26160;51.858;4.398;2024-01-07T03:02:47;2.60;99.90
40454;DHT22;26160;51.858;4.398;2024-01-07T03:05:13;2.60;99.90
40454;DHT22;26160;51.858;4.398;2024-01-07T03:07:40;2.60;99.90
40454;DHT22;26160;51.858;4.398;2024-01-07T03:10:06;2.60;99.90
40454;DHT22;26160;51.858;4.398;2024-01-07T03:12:32;2.50;99.90
40454;DHT22;26160;51.858;4.398;2024-01-07T03:14:58;2.60;99.90
40454;DHT22;26160;51.858;4.398;2024-01-07T03:17:25;2.50;99.90
40454;DHT22;26160;51.858;4.398;2024-01-07T03:19:51;2.50;99.90
40454;DHT22;26160;51.858;4.398;2024-01-07T03:22:17;2.50;99.90
40454;DHT22;26160;51.858;4.398;2024-01-07T03:24:43;2.50;99.90
40454;DHT22;26160;51.858;4.398;2024-01-07T03:27:09;2.50;99.90
40454;DHT22;26160;51.858;4.398;2024-01-07T03:29:35;2.30;99.90
40454;DHT22;26160;51.858;4.398;2024-01-07T03:32:02;2.40;99.90
40454;DHT22;26160;51.858;4.398;2024-01-07T03:34:28;2.40;99.90
40454;DHT22;26160;51.858;4.398;2024-01-07T03:36:54;2.40;99.90
40454;DHT22;26160;51.858;4.398;2024-01-07T03:39:20;2.40;99.90
40454;DHT22;26160;51.858;4.398;2024-01-07T03:41:46;2.30;99.90
40454;DHT22;26160;51.858;4.398;2024-01-07T03:44:12;2.30;99.90
40454;DHT22;26160;51.858;4.398;2024-01-07T03:46:39;2.30;99.90
40454;DHT22;26160;51.858;4.398;2024-01-07T03:49:05;2.30;99.90
40454;DHT22;26160;51.858;4.398;2024-01-07T03:51:31;2.30;99.90
40454;DHT22;26160;51.858;4.398;2024-01-07T03:53:57;2.30;99.90
40454;DHT22;26160;51.858;4.398;2024-01-07T03:56:23;2.20;99.90
40454;DHT22;26160;51.858;4.398;2024-01-07T03:58:49;2.20;99.90
40454;DHT22;26160;51.858;4.398;2024-01-07T04:01:16;2.10;99.90
40454;DHT22;26160;51.858;4.398;2024-01-07T04:03:43;2.20;99.90
40454;DHT22;26160;51.858;4.398;2024-01-07T04:06:09;2.20;99.90
40454;DHT22;26160;51.858;4.398;2024-01-07T04:08:35;2.10;99.90
40454;DHT22;26160;51.858;4.398;2024-01-07T04:11:02;2.10;99.90
40454;DHT22;26160;51.858;4.398;2024-01-07T04:13:28;2.10;99.90
40454;DHT22;26160;51.858;4.398;2024-01-07T04:15:54;2.20;99.90
40454;DHT22;26160;51.858;4.398;2024-01-07T04:18:20;2.20;99.90
40454;DHT22;26160;51.858;4.398;2024-01-07T04:20:47;2.20;99.90
40454;DHT22;26160;51.858;4.398;2024-01-07T04:23:13;2.20;99.90
40454;DHT22;26160;51.858;4.398;2024-01-07T04:25:39;2.20;99.90
40454;DHT22;26160;51.858;4.398;2024-01-07T04:28:06;2.20;99.90
40454;DHT22;26160;51.858;4.398;2024-01-07T04:30:33;2.20;99.90
40454;DHT22;26160;51.858;4.398;2024-01-07T04:32:59;2.20;99.90
40454;DHT22;26160;51.858;4.398;2024-01-07T04:35:25;2.20;99.90
40454;DHT22;26160;51.858;4.398;2024-01-07T04:37:51;2.20;99.90
40454;DHT22;26160;51.858;4.398;2024-01-07T04:40:17;2.20;99.90
40454;DHT22;26160;51.858;4.398;2024-01-07T04:42:43;2.20;99.90
40454;DHT22;26160;51.858;4.398;2024-01-07T04:45:09;2.20;99.90
40454;DHT22;26160;51.858;4.398;2024-01-07T04:47:35;2.20;99.90
40454;DHT22;26160;51.858;4.398;2024-01-07T04:50:03;2.30;99.90
40454;DHT22;26160;51.858;4.398;2024-01-07T04:52:29;2.20;99.90
40454;DHT22;26160;51.858;4.398;2024-01-07T04:54:56;2.20;99.90
40454;DHT22;26160;51.858;4.398;2024-01-07T04:57:22;2.30;99.90
40454;DHT22;26160;51.858;4.398;2024-01-07T04:59:49;2.30;99.90
40454;DHT22;26160;51.858;4.398;2024-01-07T05:02:15;2.20;99.90
40454;DHT22;26160;51.858;4.398;2024-01-07T05:04:42;2.30;99.90
40454;DHT22;26160;51.858;4.398;2024-01-07T05:07:08;2.30;99.90
40454;DHT22;26160;51.858;4.398;2024-01-07T05:09:34;2.30;99.90
40454;DHT22;26160;51.858;4.398;2024-01-07T05:12:02;2.20;99.90
40454;DHT22;26160;51.858;4.398;2024-01-07T05:14:28;2.20;99.90
40454;DHT22;26160;51.858;4.398;2024-01-07T05:16:54;2.20;99.90
40454;DHT22;26160;51.858;4.398;2024-01-07T05:19:21;2.20;99.90
40454;DHT22;26160;51.858;4.398;2024-01-07T05:21:47;2.20;99.90
40454;DHT22;26160;51.858;4.398;2024-01-07T05:24:13;2.10;99.90
40454;DHT22;26160;51.858;4.398;2024-01-07T05:26:43;2.10;99.90
40454;DHT22;26160;51.858;4.398;2024-01-07T05:29:10;2.10;99.90
40454;DHT22;26160;51.858;4.398;2024-01-07T05:31:39;2.20;99.90
40454;DHT22;26160;51.858;4.398;2024-01-07T05:34:06;2.20;99.90
40454;DHT22;26160;51.858;4.398;2024-01-07T05:36:32;2.20;99.90
40454;DHT22;26160;51.858;4.398;2024-01-07T05:38:58;2.20;99.90
40454;DHT22;26160;51.858;4.398;2024-01-07T05:41:24;2.20;99.90
40454;DHT22;26160;51.858;4.398;2024-01-07T05:43:51;2.10;99.90
40454;DHT22;26160;51.858;4.398;2024-01-07T05:46:17;2.00;99.90
40454;DHT22;26160;51.858;4.398;2024-01-07T05:48:44;2.00;99.90
40454;DHT22;26160;51.858;4.398;2024-01-07T05:51:11;2.00;99.90
40454;DHT22;26160;51.858;4.398;2024-01-07T05:53:38;2.00;99.90
40454;DHT22;26160;51.858;4.398;2024-01-07T05:56:04;2.00;99.90
40454;DHT22;26160;51.858;4.398;2024-01-07T05:58:30;2.00;99.90
40454;DHT22;26160;51.858;4.398;2024-01-07T06:00:57;2.00;99.90
40454;DHT22;26160;51.858;4.398;2024-01-07T06:03:24;2.00;99.90
40454;DHT22;26160;51.858;4.398;2024-01-07T06:05:50;2.00;99.90
40454;DHT22;26160;51.858;4.398;2024-01-07T06:08:16;2.00;99.90
40454;DHT22;26160;51.858;4.398;2024-01-07T06:10:43;2.00;99.90
40454;DHT22;26160;51.858;4.398;2024-01-07T06:13:09;1.90;99.90
40454;DHT22;26160;51.858;4.398;2024-01-07T06:15:35;1.90;99.90
40454;DHT22;26160;51.858;4.398;2024-01-07T06:18:02;1.90;99.90
40454;DHT22;26160;51.858;4.398;2024-01-07T06:20:28;1.90;99.90
40454;DHT22;26160;51.858;4.398;2024-01-07T06:22:54;1.90;99.90
40454;DHT22;26160;51.858;4.398;2024-01-07T06:25:20;1.90;99.90
40454;DHT22;26160;51.858;4.398;2024-01-07T06:27:46;2.00;99.90
40454;DHT22;26160;51.858;4.398;2024-01-07T06:30:13;2.00;99.90
40454;DHT22;26160;51.858;4.398;2024-01-07T06:32:39;1.90;99.90
40454;DHT22;26160;51.858;4.398;2024-01-07T06:35:06;1.90;99.90
40454;DHT22;26160;51.858;4.398;2024-01-07T06:37:32;1.90;99.90
40454;DHT22;26160;51.858;4.398;2024-01-07T06:39:58;2.00;99.90
40454;DHT22;26160;51.858;4.398;2024-01-07T06:42:24;2.00;99.90
40454;DHT22;26160;51.858;4.398;2024-01-07T06:44:51;2.00;99.90
40454;DHT22;26160;51.858;4.398;2024-01-07T06:47:17;2.00;99.90
40454;DHT22;26160;51.858;4.398;2024-01-07T06:49:43;2.00;99.90
40454;DHT22;26160;51.858;4.398;2024-01-07T06:52:09;2.00;99.90
40454;DHT22;26160;51.858;4.398;2024-01-07T06:54:35;2.00;99.90
40454;DHT22;26160;51.858;4.398;2024-01-07T06:57:01;2.10;99.90
40454;DHT22;26160;51.858;4.398;2024-01-07T06:59:28;2.00;99.90
40454;DHT22;26160;51.858;4.398;2024-01-07T07:01:54;2.00;99.90
40454;DHT22;26160;51.858;4.398;2024-01-07T07:04:22;2.10;99.90
40454;DHT22;26160;51.858;4.398;2024-01-07T07:06:48;2.10;99.90
40454;DHT22;26160;51.858;4.398;2024-01-07T07:09:14;2.10;99.90
40454;DHT22;26160;51.858;4.398;2024-01-07T07:11:41;2.00;99.90
40454;DHT22;26160;51.858;4.398;2024-01-07T07:14:07;2.00;99.90
40454;DHT22;26160;51.858;4.398;2024-01-07T07:16:33;2.00;99.90
40454;DHT22;26160;51.858;4.398;2024-01-07T07:18:59;2.10;99.90
40454;DHT22;26160;51.858;4.398;2024-01-07T07:21:25;2.10;99.90
40454;DHT22;26160;51.858;4.398;2024-01-07T07:23:53;2.10;99.90
40454;DHT22;26160;51.858;4.398;2024-01-07T07:26:19;2.00;99.90
40454;DHT22;26160;51.858;4.398;2024-01-07T07:28:46;2.10;99.90
40454;DHT22;26160;51.858;4.398;2024-01-07T07:31:12;2.10;99.90
40454;DHT22;26160;51.858;4.398;2024-01-07T07:33:42;2.10;99.90
40454;DHT22;26160;51.858;4.398;2024-01-07T07:36:08;2.10;99.90
40454;DHT22;26160;51.858;4.398;2024-01-07T07:38:35;2.10;99.90
40454;DHT22;26160;51.858;4.398;2024-01-07T07:41:01;2.00;99.90
40454;DHT22;26160;51.858;4.398;2024-01-07T07:43:27;2.10;99.90
40454;DHT22;26160;51.858;4.398;2024-01-07T07:45:54;2.10;99.90
40454;DHT22;26160;51.858;4.398;2024-01-07T07:48:20;2.10;99.90
40454;DHT22;26160;51.858;4.398;2024-01-07T07:50:46;2.10;99.90
40454;DHT22;26160;51.858;4.398;2024-01-07T07:53:12;2.10;99.90
40454;DHT22;26160;51.858;4.398;2024-01-07T07:55:39;2.10;99.90
40454;DHT22;26160;51.858;4.398;2024-01-07T07:58:06;2.10;99.90
40454;DHT22;26160;51.858;4.398;2024-01-07T08:00:32;2.10;99.90
40454;DHT22;26160;51.858;4.398;2024-01-07T08:02:58;2.00;99.90
40454;DHT22;26160;51.858;4.398;2024-01-07T08:05:24;2.10;99.90
40454;DHT22;26160;51.858;4.398;2024-01-07T08:07:50;2.10;99.90
40454;DHT22;26160;51.858;4.398;2024-01-07T08:10:16;2.00;99.90
40454;DHT22;26160;51.858;4.398;2024-01-07T08:12:43;1.90;99.90
40454;DHT22;26160;51.858;4.398;2024-01-07T08:15:09;2.00;99.90
40454;DHT22;26160;51.858;4.398;2024-01-07T08:17:35;2.00;99.90
40454;DHT22;26160;51.858;4.398;2024-01-07T08:20:01;2.00;99.90
40454;DHT22;26160;51.858;4.398;2024-01-07T08:22:28;2.00;99.90
40454;DHT22;26160;51.858;4.398;2024-01-07T08:24:55;1.90;99.90
40454;DHT22;26160;51.858;4.398;2024-01-07T08:27:21;2.00;99.90
40454;DHT22;26160;51.858;4.398;2024-01-07T08:29:47;2.00;99.90
40454;DHT22;26160;51.858;4.398;2024-01-07T08:32:13;1.90;99.90
40454;DHT22;26160;51.858;4.398;2024-01-07T08:34:39;1.90;99.90
40454;DHT22;26160;51.858;4.398;2024-01-07T08:37:07;1.80;99.90
40454;DHT22;26160;51.858;4.398;2024-01-07T08:39:33;1.80;99.90
40454;DHT22;26160;51.858;4.398;2024-01-07T08:41:59;1.80;99.90
40454;DHT22;26160;51.858;4.398;2024-01-07T08:44:25;1.80;99.90
40454;DHT22;26160;51.858;4.398;2024-01-07T08:46:52;1.80;99.90
40454;DHT22;26160;51.858;4.398;2024-01-07T08:49:18;1.80;99.90
40454;DHT22;26160;51.858;4.398;2024-01-07T08:51:44;1.80;99.90
40454;DHT22;26160;51.858;4.398;2024-01-07T08:54:10;1.80;99.90
40454;DHT22;26160;51.858;4.398;2024-01-07T08:56:36;1.90;99.90
40454;DHT22;26160;51.858;4.398;2024-01-07T08:59:03;1.90;99.90
40454;DHT22;26160;51.858;4.398;2024-01-07T09:01:30;2.00;99.90
40454;DHT22;26160;51.858;4.398;2024-01-07T09:03:56;1.90;99.90
40454;DHT22;26160;51.858;4.398;2024-01-07T09:06:22;2.00;99.90
40454;DHT22;26160;51.858;4.398;2024-01-07T09:08:48;2.00;99.90
40454;DHT22;26160;51.858;4.398;2024-01-07T09:11:18;2.00;99.90
40454;DHT22;26160;51.858;4.398;2024-01-07T09:13:44;1.90;99.90
40454;DHT22;26160;51.858;4.398;2024-01-07T09:16:10;1.90;99.90
40454;DHT22;26160;51.858;4.398;2024-01-07T09:18:37;1.80;99.90
40454;DHT22;26160;51.858;4.398;2024-01-07T09:21:03;1.80;99.90
40454;DHT22;26160;51.858;4.398;2024-01-07T09:23:29;1.90;99.90
40454;DHT22;26160;51.858;4.398;2024-01-07T09:25:56;1.90;99.90
40454;DHT22;26160;51.858;4.398;2024-01-07T09:28:22;1.80;99.90
40454;DHT22;26160;51.858;4.398;2024-01-07T09:30:48;1.80;99.90
40454;DHT22;26160;51.858;4.398;2024-01-07T09:33:14;1.90;99.90
40454;DHT22;26160;51.858;4.398;2024-01-07T09:35:41;1.80;99.90
40454;DHT22;26160;51.858;4.398;2024-01-07T09:38:08;1.90;99.90
40454;DHT22;26160;51.858;4.398;2024-01-07T09:40:34;1.80;99.90
40454;DHT22;26160;51.858;4.398;2024-01-07T09:43:00;1.80;99.90
40454;DHT22;26160;51.858;4.398;2024-01-07T09:45:27;1.90;99.90
40454;DHT22;26160;51.858;4.398;2024-01-07T09:47:54;1.90;99.90
40454;DHT22;26160;51.858;4.398;2024-01-07T09:50:21;1.90;99.90
40454;DHT22;26160;51.858;4.398;2024-01-07T09:52:52;1.90;99.90
40454;DHT22;26160;51.858;4.398;2024-01-07T09:55:37;1.90;99.90
40454;DHT22;26160;51.858;4.398;2024-01-07T09:58:06;1.90;99.90
40454;DHT22;26160;51.858;4.398;2024-01-07T10:00:32;1.90;99.90
40454;DHT22;26160;51.858;4.398;2024-01-07T10:02:58;1.90;99.90
40454;DHT22;26160;51.858;4.398;2024-01-07T10:05:25;1.90;99.90
40454;DHT22;26160;51.858;4.398;2024-01-07T10:07:51;1.90;99.90
40454;DHT22;26160;51.858;4.398;2024-01-07T10:19:31;1.90;99.90
40454;DHT22;26160;51.858;4.398;2024-01-07T10:22:04;1.80;99.10
40454;DHT22;26160;51.858;4.398;2024-01-07T10:24:41;1.80;99.90
40454;DHT22;26160;51.858;4.398;2024-01-07T10:27:09;1.80;99.90
40454;DHT22;26160;51.858;4.398;2024-01-07T10:29:37;1.90;99.40
40454;DHT22;26160;51.858;4.398;2024-01-07T10:32:04;1.90;95.80
40454;DHT22;26160;51.858;4.398;2024-01-07T10:34:34;1.80;87.40
40454;DHT22;26160;51.858;4.398;2024-01-07T10:37:02;1.80;90.30
40454;DHT22;26160;51.858;4.398;2024-01-07T10:39:29;1.80;84.80
40454;DHT22;26160;51.858;4.398;2024-01-07T10:44:32;1.80;70.40
40454;DHT22;26160;51.858;4.398;2024-01-07T10:46:59;1.80;70.20
40454;DHT22;26160;51.858;4.398;2024-01-07T10:49:27;1.90;71.80
40454;DHT22;26160;51.858;4.398;2024-01-07T10:52:03;1.90;66.50
40454;DHT22;26160;51.858;4.398;2024-01-07T10:54:34;1.90;72.70
40454;DHT22;26160;51.858;4.398;2024-01-07T10:59:40;2.10;76.50
40454;DHT22;26160;51.858;4.398;2024-01-07T11:02:08;2.20;69.30
40454;DHT22;26160;51.858;4.398;2024-01-07T11:04:41;2.20;65.50
40454;DHT22;26160;51.858;4.398;2024-01-07T11:11:16;2.30;76.00
40454;DHT22;26160;51.858;4.398;2024-01-07T11:13:43;2.20;63.60
40454;DHT22;26160;51.858;4.398;2024-01-07T11:16:13;1.90;54.20
40454;DHT22;26160;51.858;4.398;2024-01-07T11:18:50;1.80;49.90
40454;DHT22;26160;51.858;4.398;2024-01-07T11:21:23;1.70;45.80
40454;DHT22;26160;51.858;4.398;2024-01-07T11:23:52;1.70;47.60
40454;DHT22;26160;51.858;4.398;2024-01-07T11:26:20;1.70;44.70
40454;DHT22;26160;51.858;4.398;2024-01-07T11:28:53;1.80;44.10
40454;DHT22;26160;51.858;4.398;2024-01-07T11:31:21;1.90;48.40
40454;DHT22;26160;51.858;4.398;2024-01-07T11:33:49;2.00;52.40
40454;DHT22;26160;51.858;4.398;2024-01-07T11:36:16;2.00;47.10
40454;DHT22;26160;51.858;4.398;2024-01-07T11:38:43;2.10;44.00
40454;DHT22;26160;51.858;4.398;2024-01-07T11:41:11;2.20;38.40
40454;DHT22;26160;51.858;4.398;2024-01-07T11:43:55;2.30;29.70
40454;DHT22;26160;51.858;4.398;2024-01-07T11:46:22;2.20;19.00
40454;DHT22;26160;51.858;4.398;2024-01-07T11:48:50;2.10;21.80
40454;DHT22;26160;51.858;4.398;2024-01-07T11:51:18;2.20;26.50
40454;DHT22;26160;51.858;4.398;2024-01-07T11:53:49;2.20;26.50
40454;DHT22;26160;51.858;4.398;2024-01-07T11:56:15;2.20;14.80
40454;DHT22;26160;51.858;4.398;2024-01-07T11:58:42;2.10;6.60
40454;DHT22;26160;51.858;4.398;2024-01-07T12:01:08;2.10;17.30
40454;DHT22;26160;51.858;4.398;2024-01-07T12:03:34;2.10;6.60
40454;DHT22;26160;51.858;4.398;2024-01-07T12:06:00;2.10;9.30
40454;DHT22;26160;51.858;4.398;2024-01-07T12:08:27;2.10;7.50
40454;DHT22;26160;51.858;4.398;2024-01-07T12:10:53;2.20;15.20
40454;DHT22;26160;51.858;4.398;2024-01-07T12:13:21;2.20;8.40
40454;DHT22;26160;51.858;4.398;2024-01-07T12:15:47;2.20;4.20
40454;DHT22;26160;51.858;4.398;2024-01-07T12:18:14;2.20;11.70
40454;DHT22;26160;51.858;4.398;2024-01-07T12:20:56;2.20;1.00
40454;DHT22;26160;51.858;4.398;2024-01-07T12:23:24;2.10;1.00
40454;DHT22;26160;51.858;4.398;2024-01-07T12:25:54;2.00;1.00
40454;DHT22;26160;51.858;4.398;2024-01-07T12:28:24;1.90;1.00
40454;DHT22;26160;51.858;4.398;2024-01-07T12:30:50;1.80;1.00
40454;DHT22;26160;51.858;4.398;2024-01-07T12:33:19;1.80;1.00
40454;DHT22;26160;51.858;4.398;2024-01-07T12:35:47;1.90;6.10
40454;DHT22;26160;51.858;4.398;2024-01-07T12:38:13;2.10;6.10
40454;DHT22;26160;51.858;4.398;2024-01-07T12:40:39;2.20;3.30
40454;DHT22;26160;51.858;4.398;2024-01-07T12:43:06;2.30;1.00
40454;DHT22;26160;51.858;4.398;2024-01-07T12:45:33;2.40;1.00
40454;DHT22;26160;51.858;4.398;2024-01-07T12:47:59;2.40;1.00
40454;DHT22;26160;51.858;4.398;2024-01-07T12:50:28;2.40;1.00
40454;DHT22;26160;51.858;4.398;2024-01-07T12:52:56;2.40;1.00
40454;DHT22;26160;51.858;4.398;2024-01-07T12:55:24;2.30;1.00
40454;DHT22;26160;51.858;4.398;2024-01-07T12:57:51;2.20;1.00
40454;DHT22;26160;51.858;4.398;2024-01-07T13:00:19;2.20;1.00
40454;DHT22;26160;51.858;4.398;2024-01-07T13:02:46;2.30;1.00
40454;DHT22;26160;51.858;4.398;2024-01-07T13:05:12;2.40;1.00
40454;DHT22;26160;51.858;4.398;2024-01-07T13:07:39;2.40;1.00
40454;DHT22;26160;51.858;4.398;2024-01-07T13:10:05;2.40;1.00
40454;DHT22;26160;51.858;4.398;2024-01-07T13:12:32;2.50;1.00
40454;DHT22;26160;51.858;4.398;2024-01-07T13:14:58;2.60;1.00
40454;DHT22;26160;51.858;4.398;2024-01-07T13:17:24;2.70;1.00
40454;DHT22;26160;51.858;4.398;2024-01-07T13:19:52;2.60;1.00
40454;DHT22;26160;51.858;4.398;2024-01-07T13:22:18;2.40;1.00
40454;DHT22;26160;51.858;4.398;2024-01-07T13:24:44;2.20;1.00
40454;DHT22;26160;51.858;4.398;2024-01-07T13:27:11;2.10;1.00
40454;DHT22;26160;51.858;4.398;2024-01-07T13:29:37;2.00;1.00
40454;DHT22;26160;51.858;4.398;2024-01-07T13:32:03;2.00;1.00
40454;DHT22;26160;51.858;4.398;2024-01-07T13:34:29;1.90;1.00
40454;DHT22;26160;51.858;4.398;2024-01-07T13:36:55;1.90;1.00
40454;DHT22;26160;51.858;4.398;2024-01-07T13:39:22;1.80;1.00
40454;DHT22;26160;51.858;4.398;2024-01-07T13:41:48;1.80;1.00
40454;DHT22;26160;51.858;4.398;2024-01-07T13:44:15;1.70;1.00
40454;DHT22;26160;51.858;4.398;2024-01-07T13:46:48;1.80;1.00
40454;DHT22;26160;51.858;4.398;2024-01-07T13:49:14;1.70;1.00
40454;DHT22;26160;51.858;4.398;2024-01-07T13:51:41;1.70;1.00
40454;DHT22;26160;51.858;4.398;2024-01-07T13:54:08;1.60;1.00
40454;DHT22;26160;51.858;4.398;2024-01-07T13:56:36;1.60;1.00
40454;DHT22;26160;51.858;4.398;2024-01-07T13:59:03;1.60;1.00
40454;DHT22;26160;51.858;4.398;2024-01-07T14:01:30;1.60;1.00
40454;DHT22;26160;51.858;4.398;2024-01-07T14:03:57;1.60;1.00
40454;DHT22;26160;51.858;4.398;2024-01-07T14:06:28;1.70;1.00
40454;DHT22;26160;51.858;4.398;2024-01-07T14:08:55;1.70;1.00
40454;DHT22;26160;51.858;4.398;2024-01-07T14:11:22;1.70;1.00
40454;DHT22;26160;51.858;4.398;2024-01-07T14:13:48;1.70;1.00
40454;DHT22;26160;51.858;4.398;2024-01-07T14:16:14;1.70;1.00
40454;DHT22;26160;51.858;4.398;2024-01-07T14:18:41;1.70;1.00
40454;DHT22;26160;51.858;4.398;2024-01-07T14:21:10;1.70;1.00
40454;DHT22;26160;51.858;4.398;2024-01-07T14:23:36;1.60;1.00
40454;DHT22;26160;51.858;4.398;2024-01-07T14:26:02;1.60;1.00
40454;DHT22;26160;51.858;4.398;2024-01-07T14:28:29;1.50;1.00
40454;DHT22;26160;51.858;4.398;2024-01-07T14:30:56;1.50;1.00
40454;DHT22;26160;51.858;4.398;2024-01-07T14:33:23;1.50;1.00
40454;DHT22;26160;51.858;4.398;2024-01-07T14:35:49;1.50;1.00
40454;DHT22;26160;51.858;4.398;2024-01-07T14:38:15;1.40;1.00
40454;DHT22;26160;51.858;4.398;2024-01-07T14:40:42;1.40;1.00
40454;DHT22;26160;51.858;4.398;2024-01-07T14:43:12;1.40;1.00
40454;DHT22;26160;51.858;4.398;2024-01-07T14:45:38;1.40;1.00
40454;DHT22;26160;51.858;4.398;2024-01-07T14:48:05;1.40;1.00
40454;DHT22;26160;51.858;4.398;2024-01-07T14:50:31;1.40;1.00
40454;DHT22;26160;51.858;4.398;2024-01-07T14:52:57;1.40;1.00
40454;DHT22;26160;51.858;4.398;2024-01-07T14:55:23;1.40;1.00
40454;DHT22;26160;51.858;4.398;2024-01-07T14:57:49;1.40;1.00
40454;DHT22;26160;51.858;4.398;2024-01-07T15:00:16;1.50;1.00
40454;DHT22;26160;51.858;4.398;2024-01-07T15:02:43;1.50;1.00
40454;DHT22;26160;51.858;4.398;2024-01-07T15:05:09;1.50;1.00
40454;DHT22;26160;51.858;4.398;2024-01-07T15:07:35;1.50;1.00
40454;DHT22;26160;51.858;4.398;2024-01-07T15:10:01;1.50;1.00
40454;DHT22;26160;51.858;4.398;2024-01-07T15:12:28;1.50;1.00
40454;DHT22;26160;51.858;4.398;2024-01-07T15:15:04;1.40;1.00
40454;DHT22;26160;51.858;4.398;2024-01-07T15:17:32;1.30;1.00
40454;DHT22;26160;51.858;4.398;2024-01-07T15:19:58;1.30;1.00
40454;DHT22;26160;51.858;4.398;2024-01-07T15:22:25;1.20;1.00
40454;DHT22;26160;51.858;4.398;2024-01-07T15:24:51;1.10;1.00
40454;DHT22;26160;51.858;4.398;2024-01-07T15:27:18;1.10;1.00
40454;DHT22;26160;51.858;4.398;2024-01-07T15:29:44;1.00;1.00
40454;DHT22;26160;51.858;4.398;2024-01-07T15:32:10;1.00;1.00
40454;DHT22;26160;51.858;4.398;2024-01-07T15:34:36;0.90;1.00
40454;DHT22;26160;51.858;4.398;2024-01-07T15:37:02;0.90;1.00
40454;DHT22;26160;51.858;4.398;2024-01-07T15:39:28;0.90;1.00
40454;DHT22;26160;51.858;4.398;2024-01-07T15:41:54;0.90;1.00
40454;DHT22;26160;51.858;4.398;2024-01-07T15:44:23;0.90;1.00
40454;DHT22;26160;51.858;4.398;2024-01-07T15:46:53;0.80;1.00
40454;DHT22;26160;51.858;4.398;2024-01-07T15:49:19;0.80;1.00
40454;DHT22;26160;51.858;4.398;2024-01-07T15:51:45;0.80;1.00
40454;DHT22;26160;51.858;4.398;2024-01-07T15:54:11;0.80;1.00
40454;DHT22;26160;51.858;4.398;2024-01-07T15:56:37;0.70;1.00
40454;DHT22;26160;51.858;4.398;2024-01-07T15:59:03;0.70;1.00
40454;DHT22;26160;51.858;4.398;2024-01-07T16:01:30;0.70;1.00
40454;DHT22;26160;51.858;4.398;2024-01-07T16:03:56;0.70;1.00
40454;DHT22;26160;51.858;4.398;2024-01-07T16:06:22;0.70;1.00
40454;DHT22;26160;51.858;4.398;2024-01-07T16:08:48;0.70;1.00
40454;DHT22;26160;51.858;4.398;2024-01-07T16:11:14;0.60;1.00
40454;DHT22;26160;51.858;4.398;2024-01-07T16:13:43;0.60;1.00
40454;DHT22;26160;51.858;4.398;2024-01-07T16:16:09;0.60;1.00
40454;DHT22;26160;51.858;4.398;2024-01-07T16:18:36;0.60;1.00